Time;durP1;ratioP1;P1;durP2;ratioP2;P2;SDS_P1;SDS_P2;PMS_P1;PMS_P2;Temp;Humidity;BMP_temperature;BMP_pressure;BME280_temperature;BME280_humidity;BME280_pressure;Samples;Min_cycle;Max_cycle;Signal;HPM_P1;HPM_P2
2023/11/06 00:00:08;;;;;;;10.85;2.95;;;14.20;62.10;;;;;;348277;28;996;-57
2023/11/06 00:00:20;;;;;;;10.85;3.20;;;14.20;62.10;;;;;;348249;28;1224;-56
2023/11/06 00:00:32;;;;;;;10.35;3.13;;;14.20;62.10;;;;;;348175;28;920;-56
2023/11/06 00:00:43;;;;;;;11.13;3.22;;;14.20;62.00;;;;;;348230;28;1003;-58
2023/11/06 00:00:54;;;;;;;11.05;3.05;;;14.20;62.00;;;;;;348144;28;1099;-57
2023/11/06 00:01:04;;;;;;;11.15;3.15;;;14.20;61.90;;;;;;348290;28;1019;-57
2023/11/06 00:01:16;;;;;;;12.90;3.13;;;14.20;61.90;;;;;;348194;28;950;-56
2023/11/06 00:01:27;;;;;;;13.85;3.22;;;14.20;61.90;;;;;;348253;28;2004;-57
2023/11/06 00:01:37;;;;;;;11.63;3.03;;;14.20;61.90;;;;;;348183;28;1079;-57
2023/11/06 00:01:48;;;;;;;8.68;2.80;;;14.20;61.90;;;;;;348260;28;1070;-57
2023/11/06 00:01:59;;;;;;;8.30;2.50;;;14.20;62.00;;;;;;348123;28;1133;-57
2023/11/06 00:02:10;;;;;;;8.93;2.70;;;14.20;62.00;;;;;;348277;28;1062;-56
2023/11/06 00:02:20;;;;;;;9.73;2.83;;;14.20;62.00;;;;;;348297;28;837;-56
2023/11/06 00:02:31;;;;;;;10.93;2.85;;;14.20;62.00;;;;;;348224;28;853;-56
2023/11/06 00:02:42;;;;;;;12.57;2.90;;;14.20;62.00;;;;;;348145;28;1261;-56
2023/11/06 00:02:53;;;;;;;11.20;2.75;;;14.20;61.90;;;;;;348235;28;1003;-56
2023/11/06 00:03:04;;;;;;;8.95;2.58;;;14.20;61.90;;;;;;348246;28;960;-58
2023/11/06 00:03:16;;;;;;;9.85;2.65;;;14.20;62.00;;;;;;348213;28;1173;-57
2023/11/06 00:03:27;;;;;;;12.00;2.90;;;14.20;62.00;;;;;;348170;28;980;-57
2023/11/06 00:03:38;;;;;;;11.33;2.93;;;14.20;61.90;;;;;;348290;28;951;-56
2023/11/06 00:03:49;;;;;;;11.80;3.10;;;14.20;61.90;;;;;;348264;28;1028;-56
2023/11/06 00:04:01;;;;;;;9.70;2.83;;;14.20;61.80;;;;;;348217;28;1146;-58
2023/11/06 00:04:14;;;;;;;10.43;2.83;;;14.20;61.80;;;;;;348164;28;959;-56
2023/11/06 00:04:24;;;;;;;9.48;3.05;;;14.20;61.80;;;;;;348231;28;1062;-56
2023/11/06 00:04:36;;;;;;;10.15;3.20;;;14.20;61.70;;;;;;348248;28;1075;-57
2023/11/06 00:04:47;;;;;;;11.52;3.38;;;14.20;61.70;;;;;;348189;28;1182;-56
2023/11/06 00:04:58;;;;;;;13.07;3.37;;;14.20;61.80;;;;;;348189;28;1044;-57
2023/11/06 00:05:10;;;;;;;11.48;3.25;;;14.20;61.70;;;;;;348207;28;1149;-56
2023/11/06 00:05:21;;;;;;;9.15;3.10;;;14.20;61.70;;;;;;348243;28;964;-56
2023/11/06 00:05:34;;;;;;;8.35;3.13;;;14.20;61.80;;;;;;348213;28;1126;-57
2023/11/06 00:05:46;;;;;;;11.78;3.44;;;14.20;61.80;;;;;;348132;28;995;-57
2023/11/06 00:05:57;;;;;;;12.45;3.25;;;14.20;61.80;;;;;;348214;28;1114;-57
2023/11/06 00:06:08;;;;;;;11.80;2.95;;;14.20;61.80;;;;;;348241;28;1008;-56
2023/11/06 00:06:18;;;;;;;10.07;2.60;;;14.20;61.90;;;;;;348164;28;1221;-58
2023/11/06 00:06:30;;;;;;;10.68;2.80;;;14.20;61.90;;;;;;348192;28;1357;-57
2023/11/06 00:06:41;;;;;;;10.68;3.03;;;14.20;61.90;;;;;;348295;28;837;-57
2023/11/06 00:06:51;;;;;;;10.00;3.15;;;14.20;61.80;;;;;;348262;28;960;-56
2023/11/06 00:07:02;;;;;;;9.73;3.03;;;14.20;61.90;;;;;;348193;28;1087;-57
2023/11/06 00:07:13;;;;;;;9.93;2.70;;;14.20;62.00;;;;;;348184;28;928;-57
2023/11/06 00:07:24;;;;;;;10.13;2.60;;;14.20;62.00;;;;;;348239;28;1019;-58
2023/11/06 00:07:35;;;;;;;9.00;2.80;;;14.20;62.00;;;;;;348214;28;1688;-57
2023/11/06 00:07:46;;;;;;;10.45;3.15;;;14.20;62.00;;;;;;348240;28;1031;-57
2023/11/06 00:07:58;;;;;;;11.45;3.03;;;14.20;62.00;;;;;;348138;28;976;-56
2023/11/06 00:08:08;;;;;;;9.57;2.80;;;14.20;62.00;;;;;;348180;28;1357;-57
2023/11/06 00:08:19;;;;;;;8.65;2.80;;;14.20;62.00;;;;;;348234;28;1031;-57
2023/11/06 00:08:30;;;;;;;8.75;2.92;;;14.20;62.00;;;;;;348234;28;1162;-57
2023/11/06 00:08:40;;;;;;;10.38;3.08;;;14.20;61.90;;;;;;348139;28;1083;-56
2023/11/06 00:08:51;;;;;;;10.50;3.00;;;14.20;61.90;;;;;;348282;28;876;-57
2023/11/06 00:09:04;;;;;;;11.32;2.83;;;14.20;61.90;;;;;;348242;28;987;-57
2023/11/06 00:09:16;;;;;;;9.38;2.63;;;14.20;61.80;;;;;;348191;28;1236;-57
2023/11/06 00:09:27;;;;;;;8.68;2.90;;;14.20;61.80;;;;;;348147;28;968;-56
2023/11/06 00:09:38;;;;;;;9.77;3.17;;;14.20;61.80;;;;;;348241;28;1035;-56
2023/11/06 00:09:48;;;;;;;11.13;3.60;;;14.20;61.70;;;;;;348217;28;1433;-56
2023/11/06 00:09:59;;;;;;;11.60;3.77;;;14.20;61.70;;;;;;348292;28;817;-57
2023/11/06 00:10:11;;;;;;;12.25;3.60;;;14.20;61.70;;;;;;348183;28;884;-57
2023/11/06 00:10:22;;;;;;;12.30;3.22;;;14.20;61.70;;;;;;348276;28;1047;-57
2023/11/06 00:10:33;;;;;;;11.52;2.72;;;14.20;61.70;;;;;;348235;28;2053;-57
2023/11/06 00:10:43;;;;;;;9.52;2.72;;;14.20;61.70;;;;;;348264;28;825;-56
2023/11/06 00:10:54;;;;;;;10.18;2.90;;;14.20;61.70;;;;;;348156;28;1027;-57
2023/11/06 00:11:05;;;;;;;9.77;3.03;;;14.20;61.70;;;;;;348174;28;955;-58
2023/11/06 00:11:16;;;;;;;10.57;2.97;;;14.20;61.70;;;;;;348202;28;1053;-56
2023/11/06 00:11:26;;;;;;;10.67;3.00;;;14.20;61.70;;;;;;348217;28;1091;-57
2023/11/06 00:11:37;;;;;;;12.00;2.95;;;14.20;61.70;;;;;;348146;28;1111;-56
2023/11/06 00:11:49;;;;;;;12.38;2.70;;;14.20;61.70;;;;;;348200;28;1099;-56
2023/11/06 00:12:00;;;;;;;11.05;2.83;;;14.20;61.70;;;;;;348242;28;987;-56
2023/11/06 00:12:11;;;;;;;11.63;2.77;;;14.20;61.70;;;;;;348276;28;869;-56
2023/11/06 00:12:23;;;;;;;11.18;2.85;;;14.20;61.80;;;;;;348190;28;1016;-57
2023/11/06 00:12:34;;;;;;;11.38;2.75;;;14.20;61.80;;;;;;348294;28;869;-56
2023/11/06 00:12:45;;;;;;;11.37;2.83;;;14.20;61.90;;;;;;348232;28;1019;-56
2023/11/06 00:12:55;;;;;;;11.15;2.90;;;14.20;61.90;;;;;;348249;28;833;-56
2023/11/06 00:13:06;;;;;;;11.55;3.00;;;14.20;61.90;;;;;;348147;28;1138;-57
2023/11/06 00:13:17;;;;;;;9.93;2.90;;;14.20;61.80;;;;;;348214;28;1301;-57
2023/11/06 00:13:27;;;;;;;9.98;3.13;;;14.20;61.90;;;;;;348292;28;809;-56
2023/11/06 00:13:38;;;;;;;9.80;3.10;;;14.20;61.90;;;;;;348288;28;813;-57
2023/11/06 00:13:49;;;;;;;10.68;3.20;;;14.20;61.90;;;;;;348121;28;1074;-57
2023/11/06 00:14:00;;;;;;;10.85;3.00;;;14.10;61.90;;;;;;348262;28;852;-56
2023/11/06 00:14:10;;;;;;;9.90;2.75;;;14.20;61.90;;;;;;348219;28;1023;-57
2023/11/06 00:14:22;;;;;;;8.60;2.72;;;14.20;61.90;;;;;;348233;28;1019;-57
2023/11/06 00:14:32;;;;;;;8.75;2.75;;;14.20;61.90;;;;;;348118;28;1274;-56
2023/11/06 00:14:43;;;;;;;9.18;2.95;;;14.20;61.80;;;;;;348245;28;1019;-57
2023/11/06 00:14:54;;;;;;;9.13;2.90;;;14.10;61.90;;;;;;348230;28;813;-57
2023/11/06 00:15:05;;;;;;;9.60;2.80;;;14.20;61.90;;;;;;348239;28;1110;-58
2023/11/06 00:15:16;;;;;;;9.07;2.78;;;14.20;62.00;;;;;;348122;28;987;-56
2023/11/06 00:15:27;;;;;;;8.80;2.63;;;14.20;62.20;;;;;;348066;28;1420;-57
2023/11/06 00:15:38;;;;;;;9.15;2.80;;;14.20;62.10;;;;;;348279;28;1844;-57
2023/11/06 00:15:49;;;;;;;10.00;2.80;;;14.20;62.20;;;;;;348195;28;1158;-56
2023/11/06 00:15:59;;;;;;;10.48;2.95;;;14.20;62.20;;;;;;348134;28;1359;-57
2023/11/06 00:16:11;;;;;;;10.07;3.05;;;14.20;62.20;;;;;;348285;28;876;-59
2023/11/06 00:16:22;;;;;;;11.02;3.35;;;14.10;62.10;;;;;;348289;28;907;-57
2023/11/06 00:16:33;;;;;;;10.43;3.30;;;14.10;62.10;;;;;;348263;28;1026;-57
2023/11/06 00:16:43;;;;;;;10.43;3.10;;;14.10;62.10;;;;;;348098;28;1437;-57
2023/11/06 00:16:54;;;;;;;10.38;3.13;;;14.10;62.10;;;;;;348264;28;1038;-57
2023/11/06 00:17:05;;;;;;;10.48;3.08;;;14.10;62.10;;;;;;348124;28;1611;-56
2023/11/06 00:17:16;;;;;;;11.13;3.22;;;14.10;62.00;;;;;;348310;28;900;-58
2023/11/06 00:17:26;;;;;;;11.48;3.25;;;14.10;62.00;;;;;;348073;28;1506;-56
2023/11/06 00:17:37;;;;;;;12.23;3.20;;;14.10;61.90;;;;;;348244;28;1011;-56
2023/11/06 00:17:48;;;;;;;12.98;3.13;;;14.10;62.00;;;;;;348274;28;999;-57
2023/11/06 00:17:59;;;;;;;12.43;3.17;;;14.10;62.00;;;;;;348266;28;1041;-57
2023/11/06 00:18:09;;;;;;;10.32;3.40;;;14.10;62.00;;;;;;348127;28;1367;-59
2023/11/06 00:18:21;;;;;;;10.43;3.20;;;14.10;62.00;;;;;;348271;28;1189;-57
2023/11/06 00:18:31;;;;;;;10.52;2.97;;;14.10;62.00;;;;;;348160;28;1963;-58
2023/11/06 00:18:44;;;;;;;11.75;3.03;;;14.10;62.00;;;;;;348278;28;993;-57
2023/11/06 00:18:55;;;;;;;9.43;3.03;;;14.10;62.00;;;;;;348205;28;895;-57
2023/11/06 00:19:06;;;;;;;9.90;3.13;;;14.10;62.00;;;;;;348201;28;1087;-57
2023/11/06 00:19:16;;;;;;;12.02;3.58;;;14.20;62.00;;;;;;348291;28;868;-57
2023/11/06 00:19:28;;;;;;;12.90;3.35;;;14.10;61.90;;;;;;348202;28;1032;-57
2023/11/06 00:19:39;;;;;;;11.85;3.13;;;14.10;61.90;;;;;;348106;28;1495;-56
2023/11/06 00:19:50;;;;;;;10.23;2.87;;;14.10;61.90;;;;;;348230;28;1395;-59
2023/11/06 00:20:00;;;;;;;9.40;3.00;;;14.10;61.90;;;;;;348195;28;1470;-57
2023/11/06 00:20:11;;;;;;;8.80;3.05;;;14.10;61.90;;;;;;348299;28;817;-57
2023/11/06 00:20:22;;;;;;;9.82;3.08;;;14.10;61.90;;;;;;348153;28;995;-57
2023/11/06 00:20:33;;;;;;;10.35;3.05;;;14.20;61.90;;;;;;348254;28;958;-57
2023/11/06 00:20:44;;;;;;;9.33;2.90;;;14.10;61.90;;;;;;348274;28;1080;-57
2023/11/06 00:20:56;;;;;;;9.43;2.90;;;14.10;61.90;;;;;;348226;28;964;-56
2023/11/06 00:21:10;;;;;;;13.07;2.92;;;14.10;62.00;;;;;;348131;28;1019;-57
2023/11/06 00:21:23;;;;;;;14.15;3.10;;;14.10;62.10;;;;;;348233;28;1117;-57
2023/11/06 00:21:35;;;;;;;11.72;3.16;;;14.10;62.10;;;;;;348142;28;1511;-56
2023/11/06 00:21:45;;;;;;;9.43;2.90;;;14.10;62.00;;;;;;348183;28;978;-57
2023/11/06 00:21:57;;;;;;;8.98;2.88;;;14.10;62.00;;;;;;348253;28;1031;-57
2023/11/06 00:22:08;;;;;;;8.85;2.95;;;14.10;62.00;;;;;;348203;28;925;-56
2023/11/06 00:22:19;;;;;;;8.68;2.90;;;14.10;62.00;;;;;;348163;28;1971;-56
2023/11/06 00:22:30;;;;;;;8.35;2.78;;;14.10;62.00;;;;;;348270;28;865;-57
2023/11/06 00:22:41;;;;;;;12.15;3.00;;;14.10;61.90;;;;;;348248;28;971;-57
2023/11/06 00:22:53;;;;;;;12.98;3.03;;;14.10;61.90;;;;;;348180;28;1111;-57
2023/11/06 00:23:04;;;;;;;12.02;3.30;;;14.10;61.90;;;;;;348296;28;861;-57
2023/11/06 00:23:14;;;;;;;8.95;3.17;;;14.10;61.90;;;;;;348545;28;964;-56
2023/11/06 00:23:25;;;;;;;7.53;3.03;;;14.10;61.90;;;;;;348443;28;989;-57
2023/11/06 00:23:36;;;;;;;8.32;3.15;;;14.10;62.00;;;;;;348477;28;1441;-57
2023/11/06 00:23:48;;;;;;;9.30;3.38;;;14.10;62.00;;;;;;348530;28;1113;-56
2023/11/06 00:23:58;;;;;;;10.20;3.10;;;14.10;62.00;;;;;;348410;28;995;-56
2023/11/06 00:24:09;;;;;;;9.50;2.97;;;14.10;62.00;;;;;;348541;28;1086;-56
2023/11/06 00:24:20;;;;;;;9.95;2.90;;;14.10;62.00;;;;;;348468;28;1126;-57
2023/11/06 00:24:31;;;;;;;10.38;3.17;;;14.10;62.00;;;;;;348428;28;1010;-56
2023/11/06 00:24:41;;;;;;;11.13;3.13;;;14.10;62.10;;;;;;348445;28;1568;-57
2023/11/06 00:24:52;;;;;;;12.65;3.50;;;14.10;62.10;;;;;;348519;28;1751;-58
2023/11/06 00:25:05;;;;;;;13.40;3.42;;;14.00;62.10;;;;;;348422;28;995;-57
2023/11/06 00:25:16;;;;;;;12.73;3.25;;;14.10;62.10;;;;;;348529;28;947;-57
2023/11/06 00:25:27;;;;;;;10.20;3.13;;;14.10;62.20;;;;;;348525;28;1028;-57
2023/11/06 00:25:38;;;;;;;11.93;3.22;;;14.10;62.30;;;;;;348440;28;903;-58
2023/11/06 00:25:49;;;;;;;11.45;2.92;;;14.10;62.20;;;;;;348489;28;1020;-56
2023/11/06 00:25:59;;;;;;;11.70;2.80;;;14.10;62.10;;;;;;348497;28;884;-57
2023/11/06 00:26:16;;;;;;;11.03;2.80;;;14.10;62.00;;;;;;348477;28;1103;-57
2023/11/06 00:26:27;;;;;;;10.52;2.88;;;14.10;62.00;;;;;;348410;28;988;-56
2023/11/06 00:26:38;;;;;;;8.85;2.65;;;14.00;61.90;;;;;;348435;28;1469;-56
2023/11/06 00:26:48;;;;;;;9.30;2.58;;;14.00;61.90;;;;;;348507;28;1011;-57
2023/11/06 00:26:59;;;;;;;13.40;3.05;;;14.10;61.90;;;;;;348464;28;1138;-56
2023/11/06 00:27:10;;;;;;;14.07;3.27;;;14.10;61.90;;;;;;348471;28;1060;-57
2023/11/06 00:27:21;;;;;;;11.27;3.08;;;14.00;61.90;;;;;;348414;28;1879;-57
2023/11/06 00:27:32;;;;;;;9.35;2.83;;;14.00;61.90;;;;;;348435;28;1043;-58
2023/11/06 00:27:43;;;;;;;8.02;2.80;;;14.00;61.90;;;;;;348334;28;1597;-57
2023/11/06 00:27:55;;;;;;;8.02;2.80;;;14.10;62.00;;;;;;348512;28;822;-56
2023/11/06 00:28:06;;;;;;;8.38;2.78;;;14.00;62.00;;;;;;348525;28;999;-57
2023/11/06 00:28:16;;;;;;;9.80;2.90;;;14.10;62.00;;;;;;348455;28;1113;-57
2023/11/06 00:28:27;;;;;;;9.20;2.75;;;14.00;62.00;;;;;;348446;28;1262;-58
2023/11/06 00:28:38;;;;;;;9.98;2.70;;;14.00;62.10;;;;;;348506;28;996;-57
2023/11/06 00:28:49;;;;;;;10.50;2.92;;;14.00;62.10;;;;;;348514;28;991;-56
2023/11/06 00:29:00;;;;;;;11.98;3.20;;;14.00;62.10;;;;;;348452;28;892;-58
2023/11/06 00:29:11;;;;;;;11.30;3.15;;;14.00;62.10;;;;;;348498;28;1701;-56
2023/11/06 00:29:22;;;;;;;11.18;3.20;;;14.00;62.20;;;;;;348462;28;1526;-57
2023/11/06 00:29:32;;;;;;;10.33;3.10;;;14.00;62.20;;;;;;348373;28;1194;-57
2023/11/06 00:29:43;;;;;;;12.30;3.30;;;14.00;62.10;;;;;;348495;28;1583;-56
2023/11/06 00:29:54;;;;;;;12.88;3.10;;;14.00;62.00;;;;;;348527;28;1119;-56
2023/11/06 00:30:07;;;;;;;13.50;3.28;;;14.00;62.00;;;;;;348521;28;995;-57
2023/11/06 00:30:18;;;;;;;12.65;3.15;;;14.00;62.00;;;;;;348401;28;1028;-57
2023/11/06 00:30:29;;;;;;;12.75;3.25;;;14.00;62.00;;;;;;348507;28;1059;-57
2023/11/06 00:30:39;;;;;;;12.00;3.15;;;14.00;62.00;;;;;;348500;28;967;-56
2023/11/06 00:30:51;;;;;;;11.17;3.00;;;14.00;62.00;;;;;;348348;28;1433;-57
2023/11/06 00:31:01;;;;;;;9.80;2.80;;;14.00;62.00;;;;;;348514;28;1000;-57
2023/11/06 00:31:12;;;;;;;8.90;2.72;;;14.00;62.00;;;;;;348498;28;1046;-57
2023/11/06 00:31:23;;;;;;;8.40;2.87;;;14.00;62.00;;;;;;348415;28;985;-57
2023/11/06 00:31:39;;;;;;;8.35;2.80;;;14.00;62.00;;;;;;348430;28;1392;-58
2023/11/06 00:31:49;;;;;;;8.30;2.75;;;14.00;62.10;;;;;;348498;28;925;-56
2023/11/06 00:32:02;;;;;;;8.20;2.90;;;14.00;62.20;;;;;;348392;28;1290;-56
2023/11/06 00:32:13;;;;;;;10.20;3.05;;;14.00;62.30;;;;;;348467;28;1121;-57
2023/11/06 00:32:24;;;;;;;11.23;3.05;;;14.00;62.30;;;;;;348407;28;1796;-56
2023/11/06 00:32:35;;;;;;;11.18;3.03;;;14.00;62.20;;;;;;348439;28;967;-57
2023/11/06 00:32:46;;;;;;;10.23;2.97;;;14.00;62.10;;;;;;348582;28;853;-57
2023/11/06 00:32:57;;;;;;;10.02;3.13;;;14.00;62.10;;;;;;348462;28;1880;-57
2023/11/06 00:33:07;;;;;;;9.17;2.73;;;14.00;62.10;;;;;;348414;28;1139;-57
2023/11/06 00:33:18;;;;;;;9.27;2.70;;;14.00;62.10;;;;;;348517;28;1023;-57
2023/11/06 00:33:29;;;;;;;9.80;2.63;;;14.00;62.10;;;;;;348413;28;2531;-57
2023/11/06 00:33:40;;;;;;;10.43;2.90;;;14.00;62.30;;;;;;348424;28;907;-57
2023/11/06 00:33:53;;;;;;;10.13;3.30;;;14.00;62.30;;;;;;348481;28;1415;-57
2023/11/06 00:34:04;;;;;;;10.27;3.50;;;14.00;62.30;;;;;;348439;28;1083;-57
2023/11/06 00:34:14;;;;;;;12.07;3.50;;;13.90;62.20;;;;;;348394;28;2014;-56
2023/11/06 00:34:25;;;;;;;12.87;3.50;;;14.00;62.20;;;;;;348471;28;1099;-57
2023/11/06 00:34:36;;;;;;;11.65;3.15;;;14.00;62.10;;;;;;348513;28;1007;-56
2023/11/06 00:34:46;;;;;;;10.23;3.15;;;14.00;62.10;;;;;;348425;28;1746;-56
2023/11/06 00:34:57;;;;;;;11.38;2.90;;;14.00;62.10;;;;;;348525;28;857;-58
2023/11/06 00:35:09;;;;;;;11.87;3.03;;;14.00;62.00;;;;;;348455;28;1087;-57
2023/11/06 00:35:20;;;;;;;13.05;3.17;;;14.00;62.00;;;;;;348450;28;904;-57
2023/11/06 00:35:31;;;;;;;12.18;3.30;;;14.00;62.00;;;;;;348460;28;1083;-58
2023/11/06 00:35:42;;;;;;;11.52;3.08;;;14.00;62.00;;;;;;348473;28;1193;-57
2023/11/06 00:35:53;;;;;;;10.80;2.97;;;14.00;61.90;;;;;;348406;28;1003;-57
2023/11/06 00:36:05;;;;;;;9.50;2.83;;;14.00;61.90;;;;;;348523;28;857;-57
2023/11/06 00:36:20;;;;;;;9.60;2.85;;;14.00;61.90;;;;;;348493;28;1090;-57
2023/11/06 00:36:30;;;;;;;10.60;3.17;;;14.00;61.90;;;;;;348442;28;924;-57
2023/11/06 00:36:41;;;;;;;11.27;3.13;;;14.00;61.90;;;;;;348469;28;1091;-56
2023/11/06 00:36:53;;;;;;;10.82;2.90;;;14.00;62.00;;;;;;348437;28;1334;-56
2023/11/06 00:37:04;;;;;;;9.80;3.05;;;14.00;62.10;;;;;;348409;28;1258;-57
2023/11/06 00:37:15;;;;;;;9.88;3.28;;;14.00;62.10;;;;;;348497;28;1024;-56
2023/11/06 00:37:26;;;;;;;11.52;3.58;;;14.00;62.00;;;;;;348461;28;931;-57
2023/11/06 00:37:37;;;;;;;11.17;3.43;;;14.00;62.00;;;;;;348322;28;1055;-57
2023/11/06 00:37:48;;;;;;;11.15;3.33;;;14.00;62.10;;;;;;348323;28;1273;-57
2023/11/06 00:37:59;;;;;;;11.32;3.13;;;14.00;62.10;;;;;;348321;28;1111;-56
2023/11/06 00:38:11;;;;;;;10.77;3.00;;;14.00;62.00;;;;;;348347;28;999;-55
2023/11/06 00:38:21;;;;;;;12.50;3.28;;;13.90;61.90;;;;;;348282;28;2023;-56
2023/11/06 00:38:34;;;;;;;12.07;3.30;;;14.00;61.90;;;;;;348222;28;1969;-57
2023/11/06 00:38:46;;;;;;;12.38;3.30;;;13.90;61.80;;;;;;348325;28;1222;-57
2023/11/06 00:38:57;;;;;;;12.38;3.20;;;14.00;61.80;;;;;;348303;28;1015;-57
2023/11/06 00:39:07;;;;;;;12.85;3.40;;;13.90;61.80;;;;;;348373;28;1016;-56
2023/11/06 00:39:18;;;;;;;13.52;3.25;;;14.00;61.80;;;;;;348375;28;916;-56
2023/11/06 00:39:29;;;;;;;13.13;3.42;;;13.90;61.80;;;;;;348384;28;1016;-56
2023/11/06 00:39:42;;;;;;;11.97;3.20;;;14.00;61.80;;;;;;348388;28;1997;-57
2023/11/06 00:39:53;;;;;;;11.07;3.30;;;13.90;61.80;;;;;;348466;28;1610;-56
2023/11/06 00:40:04;;;;;;;10.20;3.03;;;13.90;61.80;;;;;;348550;28;856;-57
2023/11/06 00:40:15;;;;;;;11.70;3.15;;;14.00;61.80;;;;;;348437;28;1071;-56
2023/11/06 00:40:26;;;;;;;11.35;3.15;;;14.00;61.80;;;;;;348488;28;1054;-56
2023/11/06 00:40:37;;;;;;;11.10;3.03;;;13.90;61.80;;;;;;348437;28;1169;-57
2023/11/06 00:40:48;;;;;;;9.00;2.95;;;13.90;61.80;;;;;;348433;28;872;-56
2023/11/06 00:40:59;;;;;;;9.90;3.05;;;14.00;61.90;;;;;;348441;28;1122;-56
2023/11/06 00:41:09;;;;;;;10.57;3.03;;;14.00;61.90;;;;;;348512;28;967;-56
2023/11/06 00:41:22;;;;;;;10.30;2.67;;;13.90;61.90;;;;;;348354;28;1273;-57
2023/11/06 00:41:33;;;;;;;9.43;2.80;;;14.00;61.90;;;;;;348493;28;1047;-56
2023/11/06 00:41:44;;;;;;;10.25;3.00;;;14.00;61.90;;;;;;348499;28;841;-56
2023/11/06 00:41:54;;;;;;;10.17;3.10;;;13.90;61.90;;;;;;348460;28;1004;-57
2023/11/06 00:42:05;;;;;;;10.10;2.88;;;14.00;61.90;;;;;;348528;28;995;-57
2023/11/06 00:42:16;;;;;;;9.18;2.72;;;13.90;61.90;;;;;;348453;28;1615;-57
2023/11/06 00:42:27;;;;;;;9.65;2.75;;;13.90;61.90;;;;;;348445;28;1070;-56
2023/11/06 00:42:38;;;;;;;10.20;2.83;;;14.00;61.90;;;;;;348496;28;1831;-57
2023/11/06 00:42:49;;;;;;;10.32;2.80;;;13.90;61.90;;;;;;348524;28;920;-57
2023/11/06 00:43:00;;;;;;;10.20;3.00;;;13.90;61.90;;;;;;348389;28;1086;-57
2023/11/06 00:43:12;;;;;;;8.68;3.15;;;13.90;61.90;;;;;;348491;28;1099;-57
2023/11/06 00:43:23;;;;;;;9.52;3.58;;;13.90;61.90;;;;;;348486;28;1000;-57
2023/11/06 00:43:33;;;;;;;9.07;3.45;;;13.90;62.00;;;;;;348358;28;1388;-57
2023/11/06 00:43:44;;;;;;;9.63;3.10;;;13.90;62.00;;;;;;348478;28;1031;-57
2023/11/06 00:43:55;;;;;;;10.00;3.03;;;13.90;62.00;;;;;;348458;28;1389;-56
2023/11/06 00:44:05;;;;;;;11.20;3.22;;;13.90;62.10;;;;;;348429;28;1051;-56
2023/11/06 00:44:16;;;;;;;10.10;3.22;;;13.90;62.00;;;;;;348458;28;1174;-57
2023/11/06 00:44:27;;;;;;;11.43;3.30;;;13.90;62.10;;;;;;348475;28;995;-56
2023/11/06 00:44:38;;;;;;;11.15;3.35;;;13.80;62.10;;;;;;348407;28;1041;-56
2023/11/06 00:44:49;;;;;;;10.82;3.28;;;13.90;62.20;;;;;;348487;28;1055;-56
2023/11/06 00:45:02;;;;;;;10.07;3.10;;;13.90;62.20;;;;;;348522;28;980;-57
2023/11/06 00:45:13;;;;;;;8.60;2.95;;;13.90;62.10;;;;;;348348;28;1527;-57
2023/11/06 00:45:24;;;;;;;9.23;3.00;;;13.90;62.10;;;;;;348436;28;1066;-56
2023/11/06 00:45:35;;;;;;;7.90;2.80;;;13.80;62.10;;;;;;348394;28;1768;-57
2023/11/06 00:45:46;;;;;;;8.45;2.95;;;13.90;62.10;;;;;;348389;28;1019;-56
2023/11/06 00:45:56;;;;;;;8.57;3.03;;;13.90;62.10;;;;;;348498;28;908;-56
2023/11/06 00:46:07;;;;;;;9.33;3.20;;;13.90;62.10;;;;;;348498;28;983;-57
2023/11/06 00:46:18;;;;;;;8.82;3.08;;;13.90;62.20;;;;;;348389;28;1033;-56
2023/11/06 00:46:29;;;;;;;9.40;3.13;;;13.90;62.20;;;;;;348476;28;1255;-57
2023/11/06 00:46:40;;;;;;;9.18;3.13;;;13.90;62.30;;;;;;348473;28;1074;-56
2023/11/06 00:46:51;;;;;;;9.00;3.00;;;13.80;62.30;;;;;;348336;28;1572;-56
2023/11/06 00:47:01;;;;;;;9.20;2.97;;;13.90;62.30;;;;;;348485;28;1073;-57
2023/11/06 00:47:12;;;;;;;11.25;3.10;;;13.80;62.30;;;;;;348493;28;1015;-56
2023/11/06 00:47:23;;;;;;;13.77;3.27;;;13.90;62.30;;;;;;348409;28;1094;-57
2023/11/06 00:47:33;;;;;;;15.05;3.42;;;13.90;62.30;;;;;;348433;28;1549;-56
2023/11/06 00:47:44;;;;;;;14.93;3.72;;;13.80;62.20;;;;;;348438;28;1622;-56
2023/11/06 00:47:55;;;;;;;13.13;3.53;;;13.80;62.20;;;;;;348397;28;1022;-57
2023/11/06 00:48:06;;;;;;;11.52;3.28;;;13.80;62.20;;;;;;348382;28;1524;-58
2023/11/06 00:48:17;;;;;;;9.65;2.97;;;13.80;62.30;;;;;;348454;28;1205;-57
2023/11/06 00:48:28;;;;;;;11.15;3.00;;;13.80;62.30;;;;;;348403;28;1035;-57
2023/11/06 00:48:39;;;;;;;10.87;2.80;;;13.80;62.30;;;;;;348508;28;932;-57
2023/11/06 00:48:49;;;;;;;11.52;2.80;;;13.80;62.30;;;;;;348471;28;1774;-57
2023/11/06 00:49:01;;;;;;;9.18;2.90;;;13.80;62.30;;;;;;348372;28;1479;-56
2023/11/06 00:49:11;;;;;;;11.07;3.08;;;13.80;62.30;;;;;;348497;28;849;-57
2023/11/06 00:49:22;;;;;;;10.15;3.15;;;13.80;62.30;;;;;;348437;28;1486;-56
2023/11/06 00:49:33;;;;;;;9.75;3.40;;;13.80;62.30;;;;;;348360;28;979;-56
2023/11/06 00:49:44;;;;;;;8.95;3.45;;;13.80;62.30;;;;;;348489;28;1024;-57
2023/11/06 00:49:54;;;;;;;9.90;3.27;;;13.80;62.30;;;;;;348415;28;1520;-57
2023/11/06 00:50:05;;;;;;;11.63;3.30;;;13.80;62.30;;;;;;348380;28;1032;-56
2023/11/06 00:50:17;;;;;;;12.25;3.28;;;13.80;62.30;;;;;;348452;28;1598;-57
2023/11/06 00:50:28;;;;;;;10.10;2.90;;;13.80;62.30;;;;;;348404;28;881;-56
2023/11/06 00:50:39;;;;;;;9.77;2.78;;;13.80;62.30;;;;;;348485;28;849;-56
2023/11/06 00:50:49;;;;;;;10.38;2.70;;;13.80;62.40;;;;;;348391;28;1625;-57
2023/11/06 00:51:00;;;;;;;10.87;2.83;;;13.80;62.40;;;;;;348487;28;846;-56
2023/11/06 00:51:11;;;;;;;10.15;2.88;;;13.80;62.40;;;;;;348313;28;1126;-57
2023/11/06 00:51:22;;;;;;;10.27;3.22;;;13.80;62.40;;;;;;348466;28;927;-56
2023/11/06 00:51:33;;;;;;;10.80;3.40;;;13.80;62.50;;;;;;348442;28;1087;-57
2023/11/06 00:51:43;;;;;;;11.20;3.25;;;13.80;62.50;;;;;;348509;28;857;-57
2023/11/06 00:51:54;;;;;;;10.40;3.25;;;13.80;62.50;;;;;;348363;28;1110;-57
2023/11/06 00:52:05;;;;;;;10.03;3.13;;;13.80;62.50;;;;;;348468;28;975;-57
2023/11/06 00:52:16;;;;;;;9.02;3.33;;;13.80;62.60;;;;;;348451;28;1095;-57
2023/11/06 00:52:26;;;;;;;9.13;3.10;;;13.80;62.60;;;;;;348450;28;1043;-57
2023/11/06 00:52:37;;;;;;;9.75;3.13;;;13.80;62.60;;;;;;348422;28;931;-57
2023/11/06 00:52:49;;;;;;;9.32;2.80;;;13.80;62.60;;;;;;348423;28;1126;-57
2023/11/06 00:53:00;;;;;;;9.50;2.70;;;13.80;62.80;;;;;;348419;28;1019;-57
2023/11/06 00:53:10;;;;;;;12.07;2.78;;;13.70;62.80;;;;;;348396;28;2531;-57
2023/11/06 00:53:21;;;;;;;12.90;2.70;;;13.80;62.80;;;;;;348374;28;1065;-56
2023/11/06 00:53:32;;;;;;;14.82;3.13;;;13.80;62.70;;;;;;348491;28;995;-56
2023/11/06 00:53:43;;;;;;;13.80;3.30;;;13.80;62.60;;;;;;348510;28;896;-56
2023/11/06 00:53:54;;;;;;;11.65;3.47;;;13.80;62.60;;;;;;348412;28;1347;-56
2023/11/06 00:54:05;;;;;;;8.15;3.03;;;13.80;62.50;;;;;;348391;28;1063;-56
2023/11/06 00:54:16;;;;;;;8.43;2.75;;;13.80;62.50;;;;;;348493;28;1031;-57
2023/11/06 00:54:26;;;;;;;10.13;2.72;;;13.80;62.50;;;;;;348426;28;1819;-57
2023/11/06 00:54:37;;;;;;;11.63;2.53;;;13.80;62.50;;;;;;348442;28;1098;-56
2023/11/06 00:54:48;;;;;;;12.30;2.80;;;13.80;62.50;;;;;;348342;28;1562;-57
2023/11/06 00:54:58;;;;;;;11.13;2.75;;;13.70;62.50;;;;;;348437;28;877;-57
2023/11/06 00:55:10;;;;;;;10.52;3.08;;;13.80;62.40;;;;;;348471;28;1300;-56
2023/11/06 00:55:21;;;;;;;11.30;2.95;;;13.80;62.40;;;;;;348522;28;903;-56
2023/11/06 00:55:32;;;;;;;11.50;2.97;;;13.80;62.40;;;;;;348427;28;904;-57
2023/11/06 00:55:43;;;;;;;9.77;2.93;;;13.80;62.40;;;;;;348453;28;1862;-56
2023/11/06 00:55:54;;;;;;;9.60;3.10;;;13.80;62.40;;;;;;348394;28;1628;-57
2023/11/06 00:56:05;;;;;;;10.18;3.10;;;13.80;62.30;;;;;;348467;28;1078;-57
2023/11/06 00:56:16;;;;;;;11.13;3.13;;;13.80;62.30;;;;;;348359;28;1134;-57
2023/11/06 00:56:28;;;;;;;10.00;2.83;;;13.80;62.30;;;;;;348534;28;869;-57
2023/11/06 00:56:39;;;;;;;8.57;2.80;;;13.80;62.30;;;;;;348487;28;1004;-57
2023/11/06 00:56:50;;;;;;;6.85;2.60;;;13.80;62.30;;;;;;348305;28;1054;-57
2023/11/06 00:57:01;;;;;;;7.05;2.67;;;13.80;62.30;;;;;;348513;28;896;-57
2023/11/06 00:57:12;;;;;;;10.57;2.92;;;13.80;62.30;;;;;;348450;28;1451;-57
2023/11/06 00:57:22;;;;;;;11.73;3.00;;;13.80;62.30;;;;;;348463;28;967;-55
2023/11/06 00:57:33;;;;;;;11.93;2.92;;;13.80;62.30;;;;;;348365;28;1095;-58
2023/11/06 00:57:46;;;;;;;10.48;2.92;;;13.80;62.40;;;;;;348419;28;1079;-56
2023/11/06 00:57:57;;;;;;;10.95;3.03;;;13.80;62.30;;;;;;348463;28;865;-57
2023/11/06 00:58:08;;;;;;;9.95;2.80;;;13.80;62.30;;;;;;348315;28;1667;-56
2023/11/06 00:58:18;;;;;;;9.90;2.78;;;13.80;62.30;;;;;;348483;28;1035;-58
2023/11/06 00:58:29;;;;;;;9.43;2.67;;;13.80;62.30;;;;;;348428;28;1914;-57
2023/11/06 00:58:40;;;;;;;10.65;2.97;;;13.80;62.30;;;;;;348466;28;845;-57
2023/11/06 00:58:51;;;;;;;10.05;3.10;;;13.80;62.30;;;;;;348374;28;1028;-57
2023/11/06 00:59:02;;;;;;;9.07;3.03;;;13.80;62.30;;;;;;348528;28;829;-56